sensor_id;sensor_type;location;lat;lon;timestamp;P1;durP1;ratioP1;P2;durP2;ratioP2
10529;SDS011;5313;48.834;9.228;2023-02-13T00:00:19;18.97;;;11.17;;
10529;SDS011;5313;48.834;9.228;2023-02-13T00:02:47;18.63;;;10.93;;
10529;SDS011;5313;48.834;9.228;2023-02-13T00:05:13;19.53;;;11.63;;
10529;SDS011;5313;48.834;9.228;2023-02-13T00:07:39;21.37;;;11.83;;
10529;SDS011;5313;48.834;9.228;2023-02-13T00:10:04;19.57;;;11.73;;
10529;SDS011;5313;48.834;9.228;2023-02-13T00:12:31;18.73;;;11.80;;
10529;SDS011;5313;48.834;9.228;2023-02-13T00:14:56;18.03;;;11.37;;
10529;SDS011;5313;48.834;9.228;2023-02-13T00:17:23;22.90;;;12.17;;
10529;SDS011;5313;48.834;9.228;2023-02-13T00:19:49;21.53;;;12.13;;
10529;SDS011;5313;48.834;9.228;2023-02-13T00:22:15;20.17;;;12.13;;
10529;SDS011;5313;48.834;9.228;2023-02-13T00:24:41;21.97;;;12.90;;
10529;SDS011;5313;48.834;9.228;2023-02-13T00:27:07;20.60;;;13.10;;
10529;SDS011;5313;48.834;9.228;2023-02-13T00:29:32;20.53;;;12.30;;
10529;SDS011;5313;48.834;9.228;2023-02-13T00:31:57;22.07;;;12.80;;
10529;SDS011;5313;48.834;9.228;2023-02-13T00:34:25;20.00;;;12.27;;
10529;SDS011;5313;48.834;9.228;2023-02-13T00:36:51;22.63;;;12.83;;
10529;SDS011;5313;48.834;9.228;2023-02-13T00:39:16;17.97;;;13.03;;
10529;SDS011;5313;48.834;9.228;2023-02-13T00:41:42;21.03;;;13.93;;
10529;SDS011;5313;48.834;9.228;2023-02-13T00:44:08;24.63;;;13.17;;
10529;SDS011;5313;48.834;9.228;2023-02-13T00:46:34;21.63;;;13.53;;
10529;SDS011;5313;48.834;9.228;2023-02-13T00:49:00;22.10;;;13.17;;
10529;SDS011;5313;48.834;9.228;2023-02-13T00:51:26;20.27;;;12.13;;
10529;SDS011;5313;48.834;9.228;2023-02-13T00:53:51;21.50;;;13.23;;
10529;SDS011;5313;48.834;9.228;2023-02-13T00:56:17;21.30;;;13.37;;
10529;SDS011;5313;48.834;9.228;2023-02-13T00:58:42;19.77;;;13.33;;
10529;SDS011;5313;48.834;9.228;2023-02-13T01:01:09;18.27;;;12.87;;
10529;SDS011;5313;48.834;9.228;2023-02-13T01:03:34;20.63;;;13.23;;
10529;SDS011;5313;48.834;9.228;2023-02-13T01:06:00;21.37;;;13.07;;
10529;SDS011;5313;48.834;9.228;2023-02-13T01:08:26;22.53;;;12.37;;
10529;SDS011;5313;48.834;9.228;2023-02-13T01:10:52;19.87;;;13.90;;
10529;SDS011;5313;48.834;9.228;2023-02-13T01:13:19;21.77;;;13.43;;
10529;SDS011;5313;48.834;9.228;2023-02-13T01:15:45;18.10;;;12.13;;
10529;SDS011;5313;48.834;9.228;2023-02-13T01:18:12;22.33;;;13.30;;
10529;SDS011;5313;48.834;9.228;2023-02-13T01:20:39;21.33;;;12.63;;
10529;SDS011;5313;48.834;9.228;2023-02-13T01:23:05;22.23;;;13.93;;
10529;SDS011;5313;48.834;9.228;2023-02-13T01:25:31;22.87;;;12.60;;
10529;SDS011;5313;48.834;9.228;2023-02-13T01:27:56;21.17;;;13.20;;
10529;SDS011;5313;48.834;9.228;2023-02-13T01:30:22;19.00;;;12.77;;
10529;SDS011;5313;48.834;9.228;2023-02-13T01:32:47;19.43;;;12.43;;
10529;SDS011;5313;48.834;9.228;2023-02-13T01:35:13;20.17;;;12.17;;
10529;SDS011;5313;48.834;9.228;2023-02-13T01:37:39;24.30;;;13.17;;
10529;SDS011;5313;48.834;9.228;2023-02-13T01:40:07;23.30;;;13.50;;
10529;SDS011;5313;48.834;9.228;2023-02-13T01:42:35;23.00;;;12.97;;
10529;SDS011;5313;48.834;9.228;2023-02-13T01:45:05;18.07;;;12.00;;
10529;SDS011;5313;48.834;9.228;2023-02-13T01:47:47;18.23;;;12.73;;
10529;SDS011;5313;48.834;9.228;2023-02-13T01:50:29;21.13;;;12.60;;
10529;SDS011;5313;48.834;9.228;2023-02-13T01:53:05;20.97;;;12.33;;
10529;SDS011;5313;48.834;9.228;2023-02-13T01:55:36;21.13;;;12.23;;
10529;SDS011;5313;48.834;9.228;2023-02-13T01:58:12;20.83;;;12.50;;
10529;SDS011;5313;48.834;9.228;2023-02-13T02:00:41;20.00;;;13.57;;
10529;SDS011;5313;48.834;9.228;2023-02-13T02:03:12;20.27;;;12.33;;
10529;SDS011;5313;48.834;9.228;2023-02-13T02:05:39;19.60;;;12.73;;
10529;SDS011;5313;48.834;9.228;2023-02-13T02:08:07;20.37;;;13.00;;
10529;SDS011;5313;48.834;9.228;2023-02-13T02:10:35;21.23;;;12.53;;
10529;SDS011;5313;48.834;9.228;2023-02-13T02:13:04;23.30;;;13.10;;
10529;SDS011;5313;48.834;9.228;2023-02-13T02:15:35;19.37;;;12.27;;
10529;SDS011;5313;48.834;9.228;2023-02-13T02:18:00;21.47;;;13.53;;
10529;SDS011;5313;48.834;9.228;2023-02-13T02:20:35;23.20;;;13.00;;
10529;SDS011;5313;48.834;9.228;2023-02-13T02:23:16;23.77;;;12.63;;
10529;SDS011;5313;48.834;9.228;2023-02-13T02:28:42;19.67;;;12.83;;
10529;SDS011;5313;48.834;9.228;2023-02-13T02:31:47;22.50;;;12.60;;
10529;SDS011;5313;48.834;9.228;2023-02-13T02:39:57;21.20;;;12.53;;
10529;SDS011;5313;48.834;9.228;2023-02-13T02:45:08;20.03;;;12.30;;
10529;SDS011;5313;48.834;9.228;2023-02-13T02:47:50;20.20;;;13.03;;
10529;SDS011;5313;48.834;9.228;2023-02-13T02:58:46;20.43;;;11.73;;
10529;SDS011;5313;48.834;9.228;2023-02-13T03:01:35;20.87;;;13.07;;
10529;SDS011;5313;48.834;9.228;2023-02-13T03:04:25;22.60;;;12.20;;
10529;SDS011;5313;48.834;9.228;2023-02-13T03:07:10;21.53;;;12.67;;
10529;SDS011;5313;48.834;9.228;2023-02-13T03:09:40;22.67;;;13.10;;
10529;SDS011;5313;48.834;9.228;2023-02-13T03:12:29;23.33;;;12.83;;
10529;SDS011;5313;48.834;9.228;2023-02-13T03:15:20;20.77;;;12.37;;
10529;SDS011;5313;48.834;9.228;2023-02-13T03:17:47;21.10;;;12.83;;
10529;SDS011;5313;48.834;9.228;2023-02-13T03:23:29;19.23;;;11.80;;
10529;SDS011;5313;48.834;9.228;2023-02-13T03:26:21;23.03;;;13.13;;
10529;SDS011;5313;48.834;9.228;2023-02-13T03:29:19;18.27;;;12.17;;
10529;SDS011;5313;48.834;9.228;2023-02-13T03:38:03;20.93;;;13.50;;
10529;SDS011;5313;48.834;9.228;2023-02-13T03:40:40;20.50;;;12.93;;
10529;SDS011;5313;48.834;9.228;2023-02-13T03:46:28;22.23;;;12.73;;
10529;SDS011;5313;48.834;9.228;2023-02-13T03:48:57;25.77;;;13.90;;
10529;SDS011;5313;48.834;9.228;2023-02-13T03:51:48;22.20;;;13.00;;
10529;SDS011;5313;48.834;9.228;2023-02-13T03:54:17;26.93;;;13.27;;
10529;SDS011;5313;48.834;9.228;2023-02-13T03:57:17;24.23;;;13.47;;
10529;SDS011;5313;48.834;9.228;2023-02-13T04:00:04;24.70;;;12.67;;
10529;SDS011;5313;48.834;9.228;2023-02-13T04:02:33;21.53;;;13.00;;
10529;SDS011;5313;48.834;9.228;2023-02-13T04:05:09;20.50;;;12.20;;
10529;SDS011;5313;48.834;9.228;2023-02-13T04:07:41;21.60;;;12.33;;
10529;SDS011;5313;48.834;9.228;2023-02-13T04:10:11;20.37;;;12.07;;
10529;SDS011;5313;48.834;9.228;2023-02-13T04:12:49;22.17;;;12.33;;
10529;SDS011;5313;48.834;9.228;2023-02-13T04:15:33;25.00;;;12.87;;
10529;SDS011;5313;48.834;9.228;2023-02-13T04:18:13;21.70;;;12.97;;
10529;SDS011;5313;48.834;9.228;2023-02-13T04:20:51;23.17;;;12.43;;
10529;SDS011;5313;48.834;9.228;2023-02-13T04:23:17;22.53;;;13.30;;
10529;SDS011;5313;48.834;9.228;2023-02-13T04:25:46;22.27;;;13.40;;
10529;SDS011;5313;48.834;9.228;2023-02-13T04:28:14;23.30;;;12.87;;
10529;SDS011;5313;48.834;9.228;2023-02-13T04:30:40;21.77;;;11.97;;
10529;SDS011;5313;48.834;9.228;2023-02-13T04:33:06;21.47;;;13.20;;
10529;SDS011;5313;48.834;9.228;2023-02-13T04:35:31;23.30;;;12.60;;
10529;SDS011;5313;48.834;9.228;2023-02-13T04:37:57;22.57;;;12.73;;
10529;SDS011;5313;48.834;9.228;2023-02-13T04:40:23;19.30;;;12.27;;
10529;SDS011;5313;48.834;9.228;2023-02-13T04:42:48;19.47;;;12.30;;
10529;SDS011;5313;48.834;9.228;2023-02-13T04:45:14;23.37;;;12.83;;
10529;SDS011;5313;48.834;9.228;2023-02-13T04:47:40;23.37;;;12.90;;
10529;SDS011;5313;48.834;9.228;2023-02-13T04:50:06;22.30;;;13.20;;
10529;SDS011;5313;48.834;9.228;2023-02-13T04:52:32;23.00;;;12.87;;
10529;SDS011;5313;48.834;9.228;2023-02-13T04:54:57;21.03;;;13.40;;
10529;SDS011;5313;48.834;9.228;2023-02-13T04:57:23;24.40;;;13.70;;
10529;SDS011;5313;48.834;9.228;2023-02-13T04:59:48;21.57;;;12.80;;
10529;SDS011;5313;48.834;9.228;2023-02-13T05:02:14;24.47;;;12.97;;
10529;SDS011;5313;48.834;9.228;2023-02-13T05:04:39;18.23;;;12.13;;
10529;SDS011;5313;48.834;9.228;2023-02-13T05:07:05;23.93;;;12.80;;
10529;SDS011;5313;48.834;9.228;2023-02-13T05:09:30;24.00;;;12.70;;
10529;SDS011;5313;48.834;9.228;2023-02-13T05:11:56;19.60;;;12.60;;
10529;SDS011;5313;48.834;9.228;2023-02-13T05:14:21;23.77;;;13.50;;
10529;SDS011;5313;48.834;9.228;2023-02-13T05:16:47;24.07;;;13.33;;
10529;SDS011;5313;48.834;9.228;2023-02-13T05:19:13;23.43;;;12.40;;
10529;SDS011;5313;48.834;9.228;2023-02-13T05:21:40;23.07;;;13.10;;
10529;SDS011;5313;48.834;9.228;2023-02-13T05:24:24;23.93;;;13.27;;
10529;SDS011;5313;48.834;9.228;2023-02-13T05:26:49;20.40;;;12.47;;
10529;SDS011;5313;48.834;9.228;2023-02-13T05:29:15;22.50;;;12.60;;
10529;SDS011;5313;48.834;9.228;2023-02-13T05:31:47;23.43;;;13.43;;
10529;SDS011;5313;48.834;9.228;2023-02-13T05:34:14;21.73;;;13.27;;
10529;SDS011;5313;48.834;9.228;2023-02-13T05:36:40;26.70;;;13.97;;
10529;SDS011;5313;48.834;9.228;2023-02-13T05:39:06;23.37;;;13.97;;
10529;SDS011;5313;48.834;9.228;2023-02-13T05:41:32;20.40;;;13.20;;
10529;SDS011;5313;48.834;9.228;2023-02-13T05:43:57;23.67;;;13.37;;
10529;SDS011;5313;48.834;9.228;2023-02-13T05:46:23;23.77;;;14.10;;
10529;SDS011;5313;48.834;9.228;2023-02-13T05:48:48;26.67;;;13.43;;
10529;SDS011;5313;48.834;9.228;2023-02-13T05:51:14;25.33;;;14.07;;
10529;SDS011;5313;48.834;9.228;2023-02-13T05:53:39;23.83;;;13.83;;
10529;SDS011;5313;48.834;9.228;2023-02-13T05:56:05;28.30;;;16.27;;
10529;SDS011;5313;48.834;9.228;2023-02-13T05:58:31;22.83;;;14.37;;
10529;SDS011;5313;48.834;9.228;2023-02-13T06:00:58;26.80;;;15.23;;
10529;SDS011;5313;48.834;9.228;2023-02-13T06:03:24;23.77;;;14.97;;
10529;SDS011;5313;48.834;9.228;2023-02-13T06:05:51;26.00;;;15.73;;
10529;SDS011;5313;48.834;9.228;2023-02-13T06:08:17;24.57;;;14.27;;
10529;SDS011;5313;48.834;9.228;2023-02-13T06:10:43;29.80;;;14.93;;
10529;SDS011;5313;48.834;9.228;2023-02-13T06:13:09;22.57;;;14.23;;
10529;SDS011;5313;48.834;9.228;2023-02-13T06:15:35;21.87;;;12.60;;
10529;SDS011;5313;48.834;9.228;2023-02-13T06:18:00;25.40;;;12.63;;
10529;SDS011;5313;48.834;9.228;2023-02-13T06:20:26;22.83;;;13.33;;
10529;SDS011;5313;48.834;9.228;2023-02-13T06:22:52;21.70;;;12.43;;
10529;SDS011;5313;48.834;9.228;2023-02-13T06:25:18;22.70;;;12.83;;
10529;SDS011;5313;48.834;9.228;2023-02-13T06:27:44;22.43;;;12.57;;
10529;SDS011;5313;48.834;9.228;2023-02-13T06:30:10;21.40;;;12.43;;
10529;SDS011;5313;48.834;9.228;2023-02-13T06:32:36;23.07;;;12.73;;
10529;SDS011;5313;48.834;9.228;2023-02-13T06:35:02;20.37;;;12.23;;
10529;SDS011;5313;48.834;9.228;2023-02-13T06:37:27;21.40;;;13.00;;
10529;SDS011;5313;48.834;9.228;2023-02-13T06:39:53;25.53;;;12.73;;
10529;SDS011;5313;48.834;9.228;2023-02-13T06:42:18;19.50;;;12.23;;
10529;SDS011;5313;48.834;9.228;2023-02-13T06:44:44;25.17;;;12.47;;
10529;SDS011;5313;48.834;9.228;2023-02-13T06:47:09;22.43;;;12.57;;
10529;SDS011;5313;48.834;9.228;2023-02-13T06:49:35;26.13;;;13.20;;
10529;SDS011;5313;48.834;9.228;2023-02-13T06:52:00;23.57;;;13.23;;
10529;SDS011;5313;48.834;9.228;2023-02-13T06:54:26;23.27;;;13.30;;
10529;SDS011;5313;48.834;9.228;2023-02-13T06:56:51;22.73;;;11.87;;
10529;SDS011;5313;48.834;9.228;2023-02-13T06:59:17;20.97;;;12.10;;
10529;SDS011;5313;48.834;9.228;2023-02-13T07:01:42;23.07;;;12.13;;
10529;SDS011;5313;48.834;9.228;2023-02-13T07:04:08;24.43;;;12.00;;
10529;SDS011;5313;48.834;9.228;2023-02-13T07:06:33;22.03;;;12.33;;
10529;SDS011;5313;48.834;9.228;2023-02-13T07:09:00;25.80;;;12.77;;
10529;SDS011;5313;48.834;9.228;2023-02-13T07:11:26;22.40;;;11.63;;
10529;SDS011;5313;48.834;9.228;2023-02-13T07:13:52;20.37;;;12.37;;
10529;SDS011;5313;48.834;9.228;2023-02-13T07:16:17;23.60;;;11.77;;
10529;SDS011;5313;48.834;9.228;2023-02-13T07:18:43;28.13;;;13.30;;
10529;SDS011;5313;48.834;9.228;2023-02-13T07:21:08;24.53;;;12.23;;
10529;SDS011;5313;48.834;9.228;2023-02-13T07:23:34;27.73;;;13.07;;
10529;SDS011;5313;48.834;9.228;2023-02-13T07:26:00;21.27;;;12.97;;
10529;SDS011;5313;48.834;9.228;2023-02-13T07:28:26;22.83;;;12.17;;
10529;SDS011;5313;48.834;9.228;2023-02-13T07:30:53;25.20;;;13.00;;
10529;SDS011;5313;48.834;9.228;2023-02-13T07:33:19;23.80;;;13.47;;
10529;SDS011;5313;48.834;9.228;2023-02-13T07:35:48;25.83;;;14.27;;
10529;SDS011;5313;48.834;9.228;2023-02-13T07:38:15;22.10;;;12.80;;
10529;SDS011;5313;48.834;9.228;2023-02-13T07:40:43;23.03;;;12.50;;
10529;SDS011;5313;48.834;9.228;2023-02-13T07:43:09;30.03;;;13.47;;
10529;SDS011;5313;48.834;9.228;2023-02-13T07:45:36;24.87;;;13.53;;
10529;SDS011;5313;48.834;9.228;2023-02-13T07:48:02;25.70;;;14.07;;
10529;SDS011;5313;48.834;9.228;2023-02-13T07:50:27;32.17;;;14.03;;
10529;SDS011;5313;48.834;9.228;2023-02-13T07:55:20;26.20;;;14.20;;
10529;SDS011;5313;48.834;9.228;2023-02-13T07:57:45;27.23;;;14.27;;
10529;SDS011;5313;48.834;9.228;2023-02-13T08:00:11;24.73;;;12.27;;
10529;SDS011;5313;48.834;9.228;2023-02-13T08:02:37;28.53;;;12.83;;
10529;SDS011;5313;48.834;9.228;2023-02-13T08:05:03;26.30;;;13.10;;
10529;SDS011;5313;48.834;9.228;2023-02-13T08:07:28;25.40;;;13.53;;
10529;SDS011;5313;48.834;9.228;2023-02-13T08:09:54;27.17;;;14.47;;
10529;SDS011;5313;48.834;9.228;2023-02-13T08:12:38;26.63;;;13.77;;
10529;SDS011;5313;48.834;9.228;2023-02-13T08:15:04;27.53;;;13.73;;
10529;SDS011;5313;48.834;9.228;2023-02-13T08:17:30;30.70;;;14.53;;
10529;SDS011;5313;48.834;9.228;2023-02-13T08:19:56;29.37;;;14.67;;
10529;SDS011;5313;48.834;9.228;2023-02-13T08:22:22;29.80;;;13.57;;
10529;SDS011;5313;48.834;9.228;2023-02-13T08:24:47;25.23;;;14.57;;
10529;SDS011;5313;48.834;9.228;2023-02-13T08:27:13;29.40;;;14.47;;
10529;SDS011;5313;48.834;9.228;2023-02-13T08:29:39;28.13;;;14.57;;
10529;SDS011;5313;48.834;9.228;2023-02-13T08:32:05;32.30;;;15.77;;
10529;SDS011;5313;48.834;9.228;2023-02-13T08:34:31;27.00;;;14.27;;
10529;SDS011;5313;48.834;9.228;2023-02-13T08:36:56;29.33;;;14.37;;
10529;SDS011;5313;48.834;9.228;2023-02-13T08:39:22;27.53;;;14.23;;
10529;SDS011;5313;48.834;9.228;2023-02-13T08:41:47;27.67;;;14.83;;
10529;SDS011;5313;48.834;9.228;2023-02-13T08:44:13;27.47;;;14.20;;
10529;SDS011;5313;48.834;9.228;2023-02-13T08:46:38;28.13;;;15.30;;
10529;SDS011;5313;48.834;9.228;2023-02-13T08:49:04;29.20;;;15.17;;
10529;SDS011;5313;48.834;9.228;2023-02-13T08:51:29;24.60;;;14.17;;
10529;SDS011;5313;48.834;9.228;2023-02-13T08:53:54;24.67;;;13.50;;
10529;SDS011;5313;48.834;9.228;2023-02-13T08:56:21;29.30;;;15.63;;
10529;SDS011;5313;48.834;9.228;2023-02-13T08:58:47;28.70;;;15.23;;
10529;SDS011;5313;48.834;9.228;2023-02-13T09:01:13;25.77;;;15.13;;
10529;SDS011;5313;48.834;9.228;2023-02-13T09:03:39;27.70;;;14.20;;
10529;SDS011;5313;48.834;9.228;2023-02-13T09:06:04;26.60;;;14.20;;
10529;SDS011;5313;48.834;9.228;2023-02-13T09:08:30;23.80;;;13.50;;
10529;SDS011;5313;48.834;9.228;2023-02-13T09:10:59;28.07;;;14.57;;
10529;SDS011;5313;48.834;9.228;2023-02-13T09:13:27;24.10;;;13.40;;
10529;SDS011;5313;48.834;9.228;2023-02-13T09:15:56;24.50;;;13.07;;
10529;SDS011;5313;48.834;9.228;2023-02-13T09:18:22;20.03;;;12.83;;
10529;SDS011;5313;48.834;9.228;2023-02-13T09:20:48;20.13;;;11.90;;
10529;SDS011;5313;48.834;9.228;2023-02-13T09:23:13;17.87;;;11.17;;
10529;SDS011;5313;48.834;9.228;2023-02-13T09:25:39;17.03;;;9.73;;
10529;SDS011;5313;48.834;9.228;2023-02-13T09:28:04;16.50;;;10.57;;
10529;SDS011;5313;48.834;9.228;2023-02-13T09:30:30;16.10;;;10.30;;
10529;SDS011;5313;48.834;9.228;2023-02-13T09:32:55;16.53;;;9.67;;
10529;SDS011;5313;48.834;9.228;2023-02-13T09:35:21;16.17;;;9.70;;
10529;SDS011;5313;48.834;9.228;2023-02-13T09:37:47;17.27;;;10.77;;
10529;SDS011;5313;48.834;9.228;2023-02-13T09:42:54;15.67;;;10.27;;
10529;SDS011;5313;48.834;9.228;2023-02-13T09:45:38;16.00;;;9.27;;
10529;SDS011;5313;48.834;9.228;2023-02-13T09:48:07;14.23;;;9.90;;
10529;SDS011;5313;48.834;9.228;2023-02-13T09:50:42;15.77;;;10.13;;
10529;SDS011;5313;48.834;9.228;2023-02-13T09:53:09;16.03;;;9.67;;
10529;SDS011;5313;48.834;9.228;2023-02-13T09:58:37;15.60;;;9.37;;
10529;SDS011;5313;48.834;9.228;2023-02-13T10:03:45;13.40;;;9.00;;
10529;SDS011;5313;48.834;9.228;2023-02-13T10:06:27;15.27;;;9.83;;
10529;SDS011;5313;48.834;9.228;2023-02-13T10:15:21;14.60;;;8.73;;
10529;SDS011;5313;48.834;9.228;2023-02-13T10:17:58;12.17;;;8.43;;
10529;SDS011;5313;48.834;9.228;2023-02-13T10:20:38;14.87;;;9.40;;
10529;SDS011;5313;48.834;9.228;2023-02-13T10:25:54;12.77;;;8.27;;
10529;SDS011;5313;48.834;9.228;2023-02-13T10:28:26;13.90;;;9.13;;
10529;SDS011;5313;48.834;9.228;2023-02-13T10:31:02;12.63;;;8.20;;
10529;SDS011;5313;48.834;9.228;2023-02-13T10:33:42;12.10;;;8.50;;
10529;SDS011;5313;48.834;9.228;2023-02-13T10:39:27;12.80;;;7.93;;
10529;SDS011;5313;48.834;9.228;2023-02-13T10:47:36;11.20;;;7.93;;
10529;SDS011;5313;48.834;9.228;2023-02-13T10:50:35;10.20;;;7.47;;
10529;SDS011;5313;48.834;9.228;2023-02-13T10:53:42;10.87;;;7.30;;
10529;SDS011;5313;48.834;9.228;2023-02-13T10:56:42;11.37;;;7.37;;
10529;SDS011;5313;48.834;9.228;2023-02-13T10:59:36;10.97;;;8.10;;
10529;SDS011;5313;48.834;9.228;2023-02-13T11:04:48;10.07;;;7.10;;
10529;SDS011;5313;48.834;9.228;2023-02-13T11:07:17;11.03;;;7.23;;
10529;SDS011;5313;48.834;9.228;2023-02-13T11:09:46;9.90;;;7.23;;
10529;SDS011;5313;48.834;9.228;2023-02-13T11:12:24;11.03;;;7.30;;
10529;SDS011;5313;48.834;9.228;2023-02-13T11:17:20;9.97;;;7.30;;
10529;SDS011;5313;48.834;9.228;2023-02-13T11:19:48;13.97;;;8.30;;
10529;SDS011;5313;48.834;9.228;2023-02-13T11:22:26;13.07;;;7.67;;
10529;SDS011;5313;48.834;9.228;2023-02-13T11:24:52;9.27;;;7.33;;
10529;SDS011;5313;48.834;9.228;2023-02-13T11:27:32;10.60;;;8.03;;
10529;SDS011;5313;48.834;9.228;2023-02-13T11:30:00;10.77;;;7.33;;
10529;SDS011;5313;48.834;9.228;2023-02-13T11:33:00;12.33;;;8.07;;
10529;SDS011;5313;48.834;9.228;2023-02-13T11:35:35;9.87;;;7.60;;
10529;SDS011;5313;48.834;9.228;2023-02-13T11:40:42;10.03;;;7.43;;
10529;SDS011;5313;48.834;9.228;2023-02-13T11:43:18;9.97;;;7.57;;
10529;SDS011;5313;48.834;9.228;2023-02-13T11:48:58;11.23;;;7.60;;
10529;SDS011;5313;48.834;9.228;2023-02-13T11:51:44;10.70;;;7.43;;
10529;SDS011;5313;48.834;9.228;2023-02-13T11:59:54;11.67;;;7.30;;
10529;SDS011;5313;48.834;9.228;2023-02-13T12:02:21;9.87;;;8.00;;
10529;SDS011;5313;48.834;9.228;2023-02-13T12:04:52;11.90;;;7.77;;
10529;SDS011;5313;48.834;9.228;2023-02-13T12:07:23;10.77;;;7.90;;
10529;SDS011;5313;48.834;9.228;2023-02-13T12:12:41;13.27;;;7.90;;
10529;SDS011;5313;48.834;9.228;2023-02-13T12:15:17;12.60;;;8.00;;
10529;SDS011;5313;48.834;9.228;2023-02-13T12:17:46;11.23;;;8.10;;
10529;SDS011;5313;48.834;9.228;2023-02-13T12:20:20;11.60;;;8.13;;
10529;SDS011;5313;48.834;9.228;2023-02-13T12:25:33;12.60;;;8.13;;
10529;SDS011;5313;48.834;9.228;2023-02-13T12:28:40;11.47;;;8.60;;
10529;SDS011;5313;48.834;9.228;2023-02-13T12:31:31;13.53;;;9.13;;
10529;SDS011;5313;48.834;9.228;2023-02-13T12:37:15;13.27;;;8.37;;
10529;SDS011;5313;48.834;9.228;2023-02-13T12:39:56;11.37;;;8.47;;
10529;SDS011;5313;48.834;9.228;2023-02-13T12:42:43;13.60;;;8.33;;
10529;SDS011;5313;48.834;9.228;2023-02-13T12:45:40;12.50;;;8.60;;
10529;SDS011;5313;48.834;9.228;2023-02-13T12:48:33;12.83;;;8.80;;
10529;SDS011;5313;48.834;9.228;2023-02-13T13:07:17;13.67;;;9.40;;
10529;SDS011;5313;48.834;9.228;2023-02-13T13:10:02;11.53;;;8.77;;
10529;SDS011;5313;48.834;9.228;2023-02-13T13:15:40;11.83;;;8.70;;
10529;SDS011;5313;48.834;9.228;2023-02-13T13:18:34;10.80;;;8.30;;
10529;SDS011;5313;48.834;9.228;2023-02-13T13:21:16;12.43;;;8.33;;
10529;SDS011;5313;48.834;9.228;2023-02-13T13:24:09;6.67;;;4.57;;
10529;SDS011;5313;48.834;9.228;2023-02-13T13:26:47;5.43;;;4.50;;
10529;SDS011;5313;48.834;9.228;2023-02-13T13:29:21;6.73;;;4.80;;
10529;SDS011;5313;48.834;9.228;2023-02-13T13:31:55;5.47;;;4.73;;
10529;SDS011;5313;48.834;9.228;2023-02-13T13:34:30;6.37;;;5.00;;
10529;SDS011;5313;48.834;9.228;2023-02-13T13:36:59;6.77;;;4.07;;
10529;SDS011;5313;48.834;9.228;2023-02-13T13:39:31;5.80;;;4.50;;
10529;SDS011;5313;48.834;9.228;2023-02-13T13:45:00;7.20;;;4.63;;
10529;SDS011;5313;48.834;9.228;2023-02-13T13:50:26;5.43;;;4.57;;
10529;SDS011;5313;48.834;9.228;2023-02-13T13:53:15;6.53;;;4.63;;
10529;SDS011;5313;48.834;9.228;2023-02-13T14:03:54;7.13;;;5.27;;
10529;SDS011;5313;48.834;9.228;2023-02-13T14:06:24;7.27;;;5.27;;
10529;SDS011;5313;48.834;9.228;2023-02-13T14:11:30;6.80;;;4.80;;
10529;SDS011;5313;48.834;9.228;2023-02-13T14:16:59;6.83;;;4.83;;
10529;SDS011;5313;48.834;9.228;2023-02-13T14:24:55;7.70;;;5.20;;
10529;SDS011;5313;48.834;9.228;2023-02-13T14:27:24;6.63;;;5.03;;
10529;SDS011;5313;48.834;9.228;2023-02-13T14:29:57;5.97;;;4.33;;
10529;SDS011;5313;48.834;9.228;2023-02-13T14:34:59;6.10;;;4.70;;
10529;SDS011;5313;48.834;9.228;2023-02-13T14:37:32;6.60;;;4.63;;
10529;SDS011;5313;48.834;9.228;2023-02-13T14:42:39;7.63;;;4.83;;
10529;SDS011;5313;48.834;9.228;2023-02-13T14:45:12;6.77;;;4.67;;
10529;SDS011;5313;48.834;9.228;2023-02-13T14:47:42;5.87;;;4.63;;
10529;SDS011;5313;48.834;9.228;2023-02-13T14:50:18;7.17;;;4.70;;
10529;SDS011;5313;48.834;9.228;2023-02-13T14:52:47;7.57;;;5.07;;
10529;SDS011;5313;48.834;9.228;2023-02-13T14:55:34;5.97;;;3.90;;
10529;SDS011;5313;48.834;9.228;2023-02-13T14:58:07;5.87;;;4.60;;
10529;SDS011;5313;48.834;9.228;2023-02-13T15:00:52;5.77;;;4.50;;
10529;SDS011;5313;48.834;9.228;2023-02-13T15:05:53;6.07;;;4.63;;
10529;SDS011;5313;48.834;9.228;2023-02-13T15:08:24;6.83;;;4.47;;
10529;SDS011;5313;48.834;9.228;2023-02-13T15:10:55;5.90;;;4.63;;
10529;SDS011;5313;48.834;9.228;2023-02-13T15:18:26;6.60;;;4.70;;
10529;SDS011;5313;48.834;9.228;2023-02-13T15:20:55;6.00;;;4.63;;
10529;SDS011;5313;48.834;9.228;2023-02-13T15:23:24;7.23;;;5.27;;
10529;SDS011;5313;48.834;9.228;2023-02-13T15:26:17;5.93;;;4.80;;
10529;SDS011;5313;48.834;9.228;2023-02-13T15:29:00;7.23;;;4.97;;
10529;SDS011;5313;48.834;9.228;2023-02-13T15:31:29;7.27;;;4.53;;
10529;SDS011;5313;48.834;9.228;2023-02-13T15:33:57;5.50;;;4.37;;
10529;SDS011;5313;48.834;9.228;2023-02-13T15:36:24;6.10;;;4.53;;
10529;SDS011;5313;48.834;9.228;2023-02-13T15:38:59;6.97;;;5.17;;
10529;SDS011;5313;48.834;9.228;2023-02-13T15:41:30;6.90;;;5.00;;
10529;SDS011;5313;48.834;9.228;2023-02-13T15:43:58;8.63;;;5.13;;
10529;SDS011;5313;48.834;9.228;2023-02-13T15:48:52;8.40;;;5.20;;
10529;SDS011;5313;48.834;9.228;2023-02-13T15:51:19;6.93;;;5.10;;
10529;SDS011;5313;48.834;9.228;2023-02-13T15:53:51;7.27;;;4.63;;
10529;SDS011;5313;48.834;9.228;2023-02-13T15:56:17;8.50;;;5.80;;
10529;SDS011;5313;48.834;9.228;2023-02-13T15:58:43;7.90;;;5.60;;
10529;SDS011;5313;48.834;9.228;2023-02-13T16:01:09;9.80;;;5.90;;
10529;SDS011;5313;48.834;9.228;2023-02-13T16:03:36;9.77;;;5.50;;
10529;SDS011;5313;48.834;9.228;2023-02-13T16:06:04;7.90;;;5.90;;
10529;SDS011;5313;48.834;9.228;2023-02-13T16:08:32;8.30;;;5.57;;
10529;SDS011;5313;48.834;9.228;2023-02-13T16:14:02;8.83;;;6.13;;
10529;SDS011;5313;48.834;9.228;2023-02-13T16:19:30;8.83;;;6.13;;
10529;SDS011;5313;48.834;9.228;2023-02-13T16:24:49;11.13;;;6.10;;
10529;SDS011;5313;48.834;9.228;2023-02-13T16:27:25;9.03;;;6.27;;
10529;SDS011;5313;48.834;9.228;2023-02-13T16:29:58;9.70;;;6.03;;
10529;SDS011;5313;48.834;9.228;2023-02-13T16:32:33;10.13;;;6.27;;
10529;SDS011;5313;48.834;9.228;2023-02-13T16:36:15;9.47;;;6.17;;
10529;SDS011;5313;48.834;9.228;2023-02-13T16:38:02;9.67;;;6.30;;
10529;SDS011;5313;48.834;9.228;2023-02-13T16:40:39;9.60;;;6.23;;
10529;SDS011;5313;48.834;9.228;2023-02-13T16:46:08;9.90;;;6.67;;
10529;SDS011;5313;48.834;9.228;2023-02-13T16:48:35;11.30;;;6.47;;
10529;SDS011;5313;48.834;9.228;2023-02-13T16:51:01;10.47;;;6.93;;
10529;SDS011;5313;48.834;9.228;2023-02-13T16:53:27;10.50;;;7.20;;
10529;SDS011;5313;48.834;9.228;2023-02-13T16:55:56;10.23;;;7.13;;
10529;SDS011;5313;48.834;9.228;2023-02-13T16:58:25;10.30;;;7.00;;
10529;SDS011;5313;48.834;9.228;2023-02-13T17:00:51;10.10;;;6.87;;
10529;SDS011;5313;48.834;9.228;2023-02-13T17:03:18;11.40;;;7.30;;
10529;SDS011;5313;48.834;9.228;2023-02-13T17:05:43;11.40;;;7.77;;
10529;SDS011;5313;48.834;9.228;2023-02-13T17:08:08;10.50;;;7.23;;
10529;SDS011;5313;48.834;9.228;2023-02-13T17:10:35;13.83;;;6.87;;
10529;SDS011;5313;48.834;9.228;2023-02-13T17:15:36;15.30;;;8.47;;
10529;SDS011;5313;48.834;9.228;2023-02-13T17:18:05;13.00;;;8.10;;
10529;SDS011;5313;48.834;9.228;2023-02-13T17:20:32;11.83;;;7.60;;
10529;SDS011;5313;48.834;9.228;2023-02-13T17:22:59;16.23;;;9.50;;
10529;SDS011;5313;48.834;9.228;2023-02-13T17:25:28;25.03;;;13.77;;
10529;SDS011;5313;48.834;9.228;2023-02-13T17:28:09;13.53;;;8.50;;
10529;SDS011;5313;48.834;9.228;2023-02-13T17:30:35;12.27;;;8.03;;
10529;SDS011;5313;48.834;9.228;2023-02-13T17:33:05;11.50;;;8.20;;
10529;SDS011;5313;48.834;9.228;2023-02-13T17:35:34;12.33;;;8.00;;
10529;SDS011;5313;48.834;9.228;2023-02-13T17:38:00;13.23;;;9.03;;
10529;SDS011;5313;48.834;9.228;2023-02-13T17:40:26;13.53;;;8.67;;
10529;SDS011;5313;48.834;9.228;2023-02-13T17:42:54;15.87;;;9.70;;